Time;durP1;ratioP1;P1;durP2;ratioP2;P2;SDS_P1;SDS_P2;PMS_P1;PMS_P2;Temp;Humidity;BMP_temperature;BMP_pressure;BME280_temperature;BME280_humidity;BME280_pressure;Samples;Min_cycle;Max_cycle;Signal;HPM_P1;HPM_P2
2023/03/18 00:01:16;;;;;;;7.47;5.87;;;12.10;99.90;;;;;;4859650;29;20831;-77
2023/03/18 00:03:44;;;;;;;6.03;5.03;;;12.10;99.90;;;;;;4860052;29;20474;-77
2023/03/18 00:06:15;;;;;;;7.90;5.00;;;12.10;99.90;;;;;;4859689;29;20455;-77
2023/03/18 00:08:44;;;;;;;7.77;5.50;;;12.10;99.90;;;;;;4859645;29;20451;-77
2023/03/18 00:11:14;;;;;;;9.33;6.00;;;12.10;99.90;;;;;;4862724;29;20473;-77
2023/03/18 00:13:45;;;;;;;7.30;5.67;;;12.10;99.90;;;;;;4860336;29;20455;-77
2023/03/18 00:16:14;;;;;;;8.70;5.83;;;12.10;99.90;;;;;;4860929;29;20431;-77
2023/03/18 00:18:43;;;;;;;7.33;5.90;;;12.10;99.90;;;;;;4859716;29;20535;-77
2023/03/18 00:21:11;;;;;;;8.90;5.33;;;12.10;99.90;;;;;;4859555;29;20535;-77
2023/03/18 00:23:40;;;;;;;7.57;5.53;;;12.10;99.90;;;;;;4859710;29;20472;-77
2023/03/18 00:26:09;;;;;;;7.63;5.67;;;12.10;99.90;;;;;;4859710;29;20459;-77
2023/03/18 00:28:40;;;;;;;9.13;5.60;;;12.00;99.90;;;;;;4859425;29;20467;-77
2023/03/18 00:31:12;;;;;;;6.87;4.80;;;12.00;99.90;;;;;;4859465;29;20542;-76
2023/03/18 00:33:44;;;;;;;10.43;6.00;;;12.00;99.90;;;;;;4859521;29;20491;-77
2023/03/18 00:36:15;;;;;;;6.80;5.33;;;12.00;99.90;;;;;;4859416;29;20454;-77
2023/03/18 00:38:44;;;;;;;7.30;5.57;;;12.00;99.90;;;;;;4859545;29;20503;-76
2023/03/18 00:41:14;;;;;;;7.70;5.70;;;12.00;99.90;;;;;;4859490;29;20846;-77
2023/03/18 00:43:51;;;;;;;7.70;5.57;;;12.00;99.90;;;;;;4859617;29;20547;-77
2023/03/18 00:46:23;;;;;;;9.20;6.13;;;12.00;99.90;;;;;;4862041;29;20485;-77
2023/03/18 00:48:53;;;;;;;6.80;5.17;;;12.00;99.90;;;;;;4862868;29;20486;-77
2023/03/18 00:51:23;;;;;;;7.57;5.80;;;12.00;99.90;;;;;;4862642;29;20996;-76
2023/03/18 00:53:54;;;;;;;6.40;5.33;;;11.90;99.90;;;;;;4862519;29;20465;-77
2023/03/18 00:56:24;;;;;;;7.03;5.90;;;11.90;99.90;;;;;;4862570;29;21017;-77
2023/03/18 00:58:53;;;;;;;8.83;5.77;;;11.90;99.90;;;;;;4862522;29;20831;-77
2023/03/18 01:01:24;;;;;;;7.50;5.80;;;11.90;99.90;;;;;;4863618;29;20879;-77
2023/03/18 01:03:53;;;;;;;7.03;5.90;;;11.90;99.90;;;;;;4862228;29;20867;-77
2023/03/18 01:06:24;;;;;;;7.60;6.00;;;11.90;99.90;;;;;;4862879;29;20807;-77
2023/03/18 01:08:52;;;;;;;7.40;5.80;;;11.90;99.90;;;;;;4862264;29;20455;-77
2023/03/18 01:11:21;;;;;;;7.83;6.10;;;11.80;99.90;;;;;;4862221;29;20988;-77
2023/03/18 01:13:50;;;;;;;7.50;5.80;;;11.80;99.90;;;;;;4863758;29;20448;-77
2023/03/18 01:16:19;;;;;;;6.47;5.80;;;11.80;99.90;;;;;;4862162;29;20451;-77
2023/03/18 01:18:49;;;;;;;7.47;5.90;;;11.80;99.90;;;;;;4862188;29;20574;-77
2023/03/18 01:21:19;;;;;;;10.53;6.40;;;11.80;99.90;;;;;;4862342;29;20492;-77
2023/03/18 01:23:54;;;;;;;7.73;5.77;;;11.80;99.90;;;;;;4861993;29;20462;-77
2023/03/18 01:26:24;;;;;;;7.47;5.93;;;11.80;99.90;;;;;;4862307;29;20455;-77
2023/03/18 01:28:55;;;;;;;7.20;5.93;;;11.70;99.90;;;;;;4861995;29;20546;-77
2023/03/18 01:31:24;;;;;;;7.23;6.47;;;11.70;99.90;;;;;;4861857;29;21037;-77
2023/03/18 01:33:56;;;;;;;7.00;5.97;;;11.70;99.90;;;;;;4862206;29;20451;-77
2023/03/18 01:36:24;;;;;;;8.13;6.03;;;11.70;99.90;;;;;;4861924;29;20821;-77
2023/03/18 01:39:05;;;;;;;7.93;6.40;;;11.70;99.90;;;;;;4863435;29;20426;-77
2023/03/18 01:41:35;;;;;;;8.20;6.47;;;11.60;99.90;;;;;;4861645;29;20479;-77
2023/03/18 01:44:12;;;;;;;10.20;6.63;;;11.60;99.90;;;;;;4861867;29;20459;-77
2023/03/18 01:46:43;;;;;;;9.40;6.70;;;11.60;99.90;;;;;;4861838;29;20483;-77
2023/03/18 01:49:17;;;;;;;7.53;6.07;;;11.60;99.90;;;;;;4862529;29;20455;-77
2023/03/18 01:51:50;;;;;;;7.10;5.80;;;11.60;99.90;;;;;;4866715;29;20423;-77
2023/03/18 01:54:19;;;;;;;8.73;6.50;;;11.50;99.90;;;;;;4865834;29;20478;-77
2023/03/18 01:56:49;;;;;;;6.43;5.70;;;11.50;99.90;;;;;;4863684;29;20462;-77
2023/03/18 01:59:18;;;;;;;7.70;6.80;;;11.50;99.90;;;;;;4864476;29;20459;-77
2023/03/18 02:01:51;;;;;;;11.50;10.30;;;11.50;99.90;;;;;;4864467;29;20452;-77
2023/03/18 02:04:27;;;;;;;9.10;7.10;;;11.50;99.90;;;;;;4864665;29;20514;-77
2023/03/18 02:06:57;;;;;;;7.13;6.00;;;11.50;99.90;;;;;;4864523;29;20884;-77
2023/03/18 02:09:25;;;;;;;7.37;6.67;;;11.40;99.90;;;;;;4864434;29;20459;-77
2023/03/18 02:11:54;;;;;;;8.63;6.90;;;11.50;99.90;;;;;;4864541;29;20447;-77
2023/03/18 02:14:25;;;;;;;8.50;6.80;;;11.40;99.90;;;;;;4861812;29;20987;-77
2023/03/18 02:17:00;;;;;;;9.00;6.67;;;11.40;99.90;;;;;;4861245;29;20463;-77
2023/03/18 02:19:42;;;;;;;8.30;6.90;;;11.40;99.90;;;;;;4861556;29;20979;-77
2023/03/18 02:22:22;;;;;;;8.53;6.57;;;11.30;99.90;;;;;;4862859;29;20948;-76
2023/03/18 02:25:07;;;;;;;8.20;7.30;;;11.30;99.90;;;;;;4862811;29;20487;-76
2023/03/18 02:27:39;;;;;;;8.33;6.90;;;11.30;99.90;;;;;;4862757;29;20970;-76
2023/03/18 02:30:12;;;;;;;10.97;7.00;;;11.30;99.90;;;;;;4861665;29;20530;-76
2023/03/18 02:32:47;;;;;;;10.03;6.80;;;11.30;99.90;;;;;;4861361;29;20459;-77
2023/03/18 02:35:15;;;;;;;8.47;7.07;;;11.30;99.90;;;;;;4860899;29;20459;-77
2023/03/18 02:37:45;;;;;;;9.93;6.33;;;11.30;99.90;;;;;;4860735;29;20458;-77
2023/03/18 02:40:19;;;;;;;7.93;6.67;;;11.30;99.90;;;;;;4860731;29;20503;-77
2023/03/18 02:42:49;;;;;;;8.40;6.63;;;11.30;99.90;;;;;;4860737;29;20470;-77
2023/03/18 02:45:32;;;;;;;8.13;6.97;;;11.30;99.90;;;;;;4860704;29;20473;-77
2023/03/18 02:48:14;;;;;;;8.90;7.70;;;11.20;99.90;;;;;;4860664;29;20455;-77
2023/03/18 02:50:44;;;;;;;10.40;8.10;;;11.20;99.90;;;;;;4860619;29;20487;-77
2023/03/18 02:53:14;;;;;;;9.77;8.80;;;11.20;99.90;;;;;;4860566;29;20466;-77
2023/03/18 02:55:42;;;;;;;8.30;7.17;;;11.20;99.90;;;;;;4860784;29;20456;-77
2023/03/18 02:58:12;;;;;;;9.20;7.70;;;11.20;99.90;;;;;;4860428;29;20451;-77
2023/03/18 03:00:41;;;;;;;9.60;7.87;;;11.20;99.90;;;;;;4860630;29;20535;-77
2023/03/18 03:03:10;;;;;;;9.47;8.13;;;11.20;99.90;;;;;;4861581;29;20502;-76
2023/03/18 03:05:38;;;;;;;11.97;8.50;;;11.10;99.90;;;;;;4860260;29;20482;-77
2023/03/18 03:08:08;;;;;;;10.63;8.50;;;11.10;99.90;;;;;;4860320;29;20490;-78
2023/03/18 03:10:39;;;;;;;11.37;8.87;;;11.10;99.90;;;;;;4860150;29;20483;-77
2023/03/18 03:13:10;;;;;;;10.37;8.47;;;11.10;99.90;;;;;;4860220;29;20883;-77
2023/03/18 03:15:41;;;;;;;10.80;8.50;;;11.10;99.90;;;;;;4861277;29;20453;-77
2023/03/18 03:18:10;;;;;;;11.07;8.53;;;11.10;99.90;;;;;;4861276;29;20454;-76
2023/03/18 03:20:39;;;;;;;9.73;8.43;;;11.10;99.90;;;;;;4859994;29;20475;-77
2023/03/18 03:23:08;;;;;;;10.43;8.40;;;11.10;99.90;;;;;;4861274;29;20547;-77
2023/03/18 03:25:37;;;;;;;11.00;9.90;;;11.10;99.90;;;;;;4860189;29;20475;-77
2023/03/18 03:28:07;;;;;;;10.60;9.53;;;11.10;99.90;;;;;;4859925;29;20481;-77
2023/03/18 03:30:36;;;;;;;12.10;9.00;;;11.10;99.90;;;;;;4859957;29;20557;-77
2023/03/18 03:33:07;;;;;;;9.60;8.53;;;11.10;99.90;;;;;;4861158;29;20454;-77
2023/03/18 03:35:36;;;;;;;12.73;9.47;;;11.10;99.90;;;;;;4859944;29;20443;-77
2023/03/18 03:38:06;;;;;;;10.57;9.10;;;11.10;99.90;;;;;;4859969;29;20451;-77
2023/03/18 03:40:34;;;;;;;10.77;9.40;;;11.10;99.90;;;;;;4861147;29;21004;-77
2023/03/18 03:43:03;;;;;;;13.73;9.50;;;11.10;99.90;;;;;;4860396;29;20924;-77
2023/03/18 03:45:31;;;;;;;14.40;10.20;;;11.10;99.90;;;;;;4861016;29;20475;-77
2023/03/18 03:48:00;;;;;;;9.90;8.90;;;11.10;99.90;;;;;;4860019;29;20451;-77
2023/03/18 03:50:31;;;;;;;10.83;9.03;;;11.10;99.90;;;;;;4859935;29;20846;-77
2023/03/18 03:53:01;;;;;;;11.20;9.10;;;11.10;99.90;;;;;;4859930;29;20466;-77
2023/03/18 03:55:29;;;;;;;12.53;9.77;;;11.10;99.90;;;;;;4859771;29;20535;-77
2023/03/18 03:57:57;;;;;;;10.80;9.07;;;11.10;99.90;;;;;;4861110;29;20963;-77
2023/03/18 04:00:28;;;;;;;10.77;9.77;;;11.10;99.90;;;;;;4860064;29;20487;-77
2023/03/18 04:02:56;;;;;;;12.20;9.20;;;11.10;99.90;;;;;;4859768;29;20455;-77
2023/03/18 04:05:25;;;;;;;10.90;9.50;;;11.20;99.90;;;;;;4859568;29;20459;-77
2023/03/18 04:07:58;;;;;;;10.90;9.57;;;11.10;99.90;;;;;;4859694;29;20451;-77
2023/03/18 04:10:35;;;;;;;12.80;9.37;;;11.10;99.90;;;;;;4860974;29;20489;-77
2023/03/18 04:13:06;;;;;;;11.73;9.60;;;11.10;99.90;;;;;;4859768;29;20486;-78
2023/03/18 04:15:34;;;;;;;10.60;9.60;;;11.20;99.90;;;;;;4859523;29;20828;-78
2023/03/18 04:18:08;;;;;;;11.33;9.40;;;11.20;99.90;;;;;;4859641;29;20985;-78
2023/03/18 04:20:39;;;;;;;10.40;9.30;;;11.20;99.90;;;;;;4861330;29;20478;-78
2023/03/18 04:23:18;;;;;;;17.43;10.27;;;11.20;99.90;;;;;;4863337;29;20525;-77
2023/03/18 04:25:46;;;;;;;10.93;9.83;;;11.10;99.90;;;;;;4864094;29;20467;-78
2023/03/18 04:28:16;;;;;;;11.57;10.20;;;11.10;99.90;;;;;;4864237;29;20439;-78
2023/03/18 04:30:44;;;;;;;12.10;10.03;;;11.10;99.90;;;;;;4863290;29;20487;-78
2023/03/18 04:33:16;;;;;;;11.63;9.20;;;11.10;99.90;;;;;;4863017;29;20483;-78
2023/03/18 04:35:45;;;;;;;11.50;9.57;;;11.10;99.90;;;;;;4862890;29;21075;-78
2023/03/18 04:38:15;;;;;;;11.13;9.90;;;11.10;99.90;;;;;;4862849;29;21036;-78
2023/03/18 04:40:45;;;;;;;11.57;10.37;;;11.10;99.90;;;;;;4862731;29;20477;-77
2023/03/18 04:43:14;;;;;;;10.90;9.80;;;11.10;99.90;;;;;;4862776;29;20462;-78
2023/03/18 04:45:42;;;;;;;11.60;10.50;;;11.10;99.90;;;;;;4862628;29;20977;-78
2023/03/18 04:48:11;;;;;;;12.07;10.37;;;11.10;99.90;;;;;;4862802;29;20463;-78
2023/03/18 04:50:42;;;;;;;10.80;9.80;;;11.10;99.90;;;;;;4862543;29;20861;-78
2023/03/18 04:53:16;;;;;;;11.90;10.17;;;11.10;99.90;;;;;;4863381;29;20442;-77
2023/03/18 04:55:46;;;;;;;14.00;11.20;;;11.00;99.90;;;;;;4862538;29;20458;-78
2023/03/18 04:58:16;;;;;;;13.10;10.27;;;11.00;99.90;;;;;;4863546;29;20479;-77
2023/03/18 05:00:56;;;;;;;11.80;10.63;;;11.00;99.90;;;;;;4862850;29;20490;-77
2023/03/18 05:03:31;;;;;;;12.50;11.27;;;11.00;99.90;;;;;;4862563;29;20447;-78
2023/03/18 05:06:00;;;;;;;13.63;11.53;;;10.90;99.90;;;;;;4862415;29;20463;-78
2023/03/18 05:08:38;;;;;;;12.33;10.10;;;10.90;99.90;;;;;;4862705;29;20507;-78
2023/03/18 05:11:08;;;;;;;12.40;11.00;;;10.90;99.90;;;;;;4862216;29;20999;-77
2023/03/18 05:13:37;;;;;;;12.40;11.10;;;10.90;99.90;;;;;;4862554;29;20474;-77
2023/03/18 05:16:08;;;;;;;14.80;11.83;;;10.90;99.90;;;;;;4862274;29;20541;-78
2023/03/18 05:18:37;;;;;;;13.37;10.23;;;10.90;99.90;;;;;;4862242;29;21044;-78
2023/03/18 05:21:07;;;;;;;13.40;12.03;;;10.80;99.90;;;;;;4862328;29;20471;-77
2023/03/18 05:23:36;;;;;;;12.73;11.37;;;10.80;99.90;;;;;;4863096;29;20488;-77
2023/03/18 05:26:05;;;;;;;14.33;11.70;;;10.80;99.90;;;;;;4863529;29;20459;-78
2023/03/18 05:28:35;;;;;;;12.70;11.20;;;10.80;99.90;;;;;;4862056;29;20469;-78
2023/03/18 05:31:17;;;;;;;12.47;11.10;;;10.70;99.90;;;;;;4861344;29;20832;-78
2023/03/18 05:33:46;;;;;;;13.23;11.93;;;10.70;99.90;;;;;;4861942;29;20527;-78
2023/03/18 05:36:15;;;;;;;14.20;12.20;;;10.70;99.90;;;;;;4862021;29;20471;-77
2023/03/18 05:38:56;;;;;;;13.20;11.53;;;10.70;99.90;;;;;;4862190;29;20540;-78
2023/03/18 05:41:25;;;;;;;14.17;12.67;;;10.60;99.90;;;;;;4861751;29;20479;-77
2023/03/18 05:43:56;;;;;;;14.53;12.70;;;10.70;99.90;;;;;;4861727;29;20454;-78
2023/03/18 05:46:25;;;;;;;15.37;13.73;;;10.60;99.90;;;;;;4861959;29;20466;-78
2023/03/18 05:49:09;;;;;;;15.30;13.53;;;10.60;99.90;;;;;;4862185;29;20463;-78
2023/03/18 05:51:51;;;;;;;14.03;12.27;;;10.60;99.90;;;;;;4862389;29;20508;-78
2023/03/18 05:54:33;;;;;;;14.10;12.10;;;10.60;99.90;;;;;;4861674;29;20455;-78
2023/03/18 05:57:02;;;;;;;13.77;12.33;;;10.60;99.90;;;;;;4861671;29;20890;-78
2023/03/18 05:59:32;;;;;;;15.10;13.47;;;10.70;99.90;;;;;;4861468;29;20458;-78
2023/03/18 06:02:01;;;;;;;15.30;13.47;;;10.70;99.90;;;;;;4861528;29;20455;-77
2023/03/18 06:04:29;;;;;;;14.33;12.93;;;10.70;99.90;;;;;;4861345;29;20492;-78
2023/03/18 06:06:58;;;;;;;14.17;12.77;;;10.80;99.90;;;;;;4861210;29;20475;-77
2023/03/18 06:09:26;;;;;;;15.30;13.20;;;10.80;99.90;;;;;;4861224;29;20507;-78
2023/03/18 06:11:54;;;;;;;18.40;14.50;;;10.80;99.90;;;;;;4861275;29;20466;-78
2023/03/18 06:14:27;;;;;;;14.80;13.20;;;10.80;99.90;;;;;;4861214;29;20467;-78
2023/03/18 06:17:00;;;;;;;15.20;13.60;;;10.80;99.90;;;;;;4861249;29;20447;-77
2023/03/18 06:19:30;;;;;;;15.97;14.47;;;10.90;99.90;;;;;;4861428;29;20455;-78
2023/03/18 06:21:58;;;;;;;17.50;13.80;;;10.90;99.90;;;;;;4861276;29;20459;-78
2023/03/18 06:24:27;;;;;;;14.90;12.60;;;10.90;99.90;;;;;;4861481;29;20470;-78
2023/03/18 06:26:57;;;;;;;16.60;14.77;;;11.00;99.90;;;;;;4860995;29;21003;-77
2023/03/18 06:29:25;;;;;;;15.63;13.60;;;10.90;99.90;;;;;;4861653;29;20462;-77
2023/03/18 06:31:56;;;;;;;14.40;12.90;;;11.00;99.90;;;;;;4860903;29;20444;-77
2023/03/18 06:34:28;;;;;;;16.03;14.33;;;11.00;99.90;;;;;;4860990;29;20895;-77
2023/03/18 06:36:56;;;;;;;15.63;14.03;;;11.00;99.90;;;;;;4860872;29;20459;-77
2023/03/18 06:39:27;;;;;;;16.10;14.40;;;11.00;99.90;;;;;;4860764;29;20505;-76
2023/03/18 06:41:56;;;;;;;16.53;14.17;;;11.10;99.90;;;;;;4861125;29;20546;-77
2023/03/18 06:44:33;;;;;;;17.20;15.40;;;11.10;99.90;;;;;;4861913;29;20427;-77
2023/03/18 06:47:10;;;;;;;17.90;16.00;;;11.10;99.90;;;;;;4860955;29;20474;-77
2023/03/18 06:49:47;;;;;;;16.50;14.90;;;11.10;99.90;;;;;;4860548;29;20478;-77
2023/03/18 06:52:20;;;;;;;18.33;16.43;;;11.10;99.90;;;;;;4861087;29;20884;-76
2023/03/18 06:54:50;;;;;;;17.83;15.87;;;11.10;99.90;;;;;;4862407;29;20450;-77
2023/03/18 06:57:19;;;;;;;16.83;15.17;;;11.10;99.90;;;;;;4860639;29;21002;-77
2023/03/18 06:59:49;;;;;;;18.43;15.53;;;11.10;99.90;;;;;;4860487;29;20482;-76
2023/03/18 07:02:18;;;;;;;17.57;15.77;;;11.10;99.90;;;;;;4862196;29;20447;-77
2023/03/18 07:04:48;;;;;;;17.57;15.67;;;11.10;99.90;;;;;;4860841;29;20458;-78
2023/03/18 07:07:16;;;;;;;18.50;16.63;;;11.10;99.90;;;;;;4860933;29;20474;-77
2023/03/18 07:09:45;;;;;;;19.00;16.33;;;11.10;99.90;;;;;;4860441;29;20463;-78
2023/03/18 07:12:15;;;;;;;18.40;15.77;;;11.10;99.90;;;;;;4860338;29;20515;-78
2023/03/18 07:14:44;;;;;;;19.00;17.10;;;11.10;99.90;;;;;;4860507;29;20799;-78
2023/03/18 07:17:13;;;;;;;18.43;16.53;;;11.10;99.90;;;;;;4860617;29;20459;-78
2023/03/18 07:19:41;;;;;;;18.20;15.73;;;11.20;99.90;;;;;;4860075;29;20478;-77
2023/03/18 07:22:11;;;;;;;18.37;16.63;;;11.10;99.90;;;;;;4860319;29;20491;-77
2023/03/18 07:24:42;;;;;;;18.10;16.30;;;11.10;99.90;;;;;;4860097;29;20447;-77
2023/03/18 07:27:12;;;;;;;18.40;16.47;;;11.10;99.90;;;;;;4860192;29;20459;-77
2023/03/18 07:29:40;;;;;;;18.30;16.50;;;11.10;99.90;;;;;;4859905;29;20570;-77
2023/03/18 07:32:09;;;;;;;18.27;16.00;;;11.10;99.90;;;;;;4860021;29;20971;-77
2023/03/18 07:34:37;;;;;;;22.63;17.23;;;11.10;99.90;;;;;;4859938;29;20462;-78
2023/03/18 07:37:05;;;;;;;18.67;16.77;;;11.10;99.90;;;;;;4859998;29;20551;-77
2023/03/18 07:39:36;;;;;;;17.47;15.80;;;11.20;99.90;;;;;;4862143;29;20466;-77
2023/03/18 07:42:09;;;;;;;18.53;16.63;;;11.20;99.90;;;;;;4860816;29;20491;-79
2023/03/18 07:44:47;;;;;;;19.10;17.20;;;11.20;99.90;;;;;;4863466;29;20451;-80
2023/03/18 07:47:17;;;;;;;19.23;17.43;;;11.20;99.90;;;;;;4864137;29;20507;-78
2023/03/18 07:49:48;;;;;;;20.50;17.87;;;11.20;99.90;;;;;;4862556;29;20475;-78
2023/03/18 07:52:16;;;;;;;17.93;16.23;;;11.20;99.90;;;;;;4863136;29;20545;-78
2023/03/18 07:54:46;;;;;;;19.40;17.37;;;11.30;99.90;;;;;;4862159;29;20462;-78
2023/03/18 07:57:15;;;;;;;19.37;17.37;;;11.30;99.90;;;;;;4865500;29;20840;-78
2023/03/18 07:59:43;;;;;;;18.70;16.97;;;11.30;99.90;;;;;;4865597;29;20490;-78
2023/03/18 08:02:13;;;;;;;20.30;18.30;;;11.30;99.90;;;;;;4864735;29;20838;-78
2023/03/18 08:04:42;;;;;;;19.33;17.47;;;11.40;99.90;;;;;;4866808;29;20637;-80
2023/03/18 08:07:11;;;;;;;19.80;17.70;;;11.30;99.90;;;;;;4865427;29;20975;-79
2023/03/18 08:09:40;;;;;;;18.37;16.57;;;11.40;99.90;;;;;;4865399;29;20487;-79
2023/03/18 08:12:10;;;;;;;19.80;17.90;;;11.40;99.90;;;;;;4864808;29;20823;-78
2023/03/18 08:14:47;;;;;;;21.00;18.93;;;11.40;99.90;;;;;;4865149;29;20999;-78
2023/03/18 08:17:15;;;;;;;20.43;18.30;;;11.50;99.90;;;;;;4864191;29;20495;-78
2023/03/18 08:19:54;;;;;;;19.33;17.53;;;11.50;99.90;;;;;;4866751;29;20479;-78
2023/03/18 08:22:31;;;;;;;19.30;17.30;;;11.60;99.90;;;;;;4865815;29;20443;-79
2023/03/18 08:25:00;;;;;;;19.20;17.30;;;11.50;99.90;;;;;;4865259;29;20473;-78
2023/03/18 08:27:30;;;;;;;18.97;17.00;;;11.50;99.90;;;;;;4863295;29;20447;-78
2023/03/18 08:29:59;;;;;;;20.27;18.10;;;11.50;99.90;;;;;;4864219;29;20622;-77
2023/03/18 08:32:31;;;;;;;18.87;17.07;;;11.60;99.90;;;;;;4863298;29;20850;-78
2023/03/18 08:35:00;;;;;;;20.23;18.13;;;11.60;99.90;;;;;;4864005;29;20463;-80
2023/03/18 08:37:28;;;;;;;20.33;18.10;;;11.60;99.90;;;;;;4863691;29;20508;-78
2023/03/18 08:39:57;;;;;;;19.17;17.30;;;11.60;99.90;;;;;;4864946;29;20467;-78
2023/03/18 08:42:26;;;;;;;19.93;17.80;;;11.70;99.90;;;;;;4863778;29;20463;-79
2023/03/18 08:44:58;;;;;;;20.87;18.87;;;11.70;99.90;;;;;;4865174;29;20462;-79
2023/03/18 08:47:28;;;;;;;19.47;17.57;;;11.70;99.90;;;;;;4865038;29;20455;-79
2023/03/18 08:49:56;;;;;;;19.40;17.30;;;11.70;99.90;;;;;;4864972;29;20881;-79
2023/03/18 08:52:24;;;;;;;19.83;17.87;;;11.80;99.90;;;;;;4864683;29;20648;-79
2023/03/18 08:54:53;;;;;;;18.90;17.00;;;11.80;99.90;;;;;;4865170;29;20466;-79
2023/03/18 08:57:21;;;;;;;19.97;17.90;;;11.80;99.90;;;;;;4865596;29;20458;-80
2023/03/18 08:59:49;;;;;;;19.57;17.57;;;11.90;99.90;;;;;;4865601;29;20474;-79
2023/03/18 09:02:19;;;;;;;20.97;18.97;;;11.90;99.90;;;;;;4865167;29;20457;-80
2023/03/18 09:04:48;;;;;;;24.10;21.40;;;11.90;99.90;;;;;;4866030;29;20535;-80
2023/03/18 09:07:16;;;;;;;22.90;20.60;;;12.00;99.90;;;;;;4865255;29;20465;-79
2023/03/18 09:09:46;;;;;;;21.97;19.73;;;12.10;99.90;;;;;;4865863;29;20491;-79
2023/03/18 09:12:14;;;;;;;23.47;18.90;;;12.10;99.90;;;;;;4865365;29;20971;-79
2023/03/18 09:14:42;;;;;;;20.80;18.40;;;12.20;99.90;;;;;;4864873;29;20469;-79
2023/03/18 09:17:12;;;;;;;23.13;20.03;;;12.20;99.90;;;;;;4865412;29;20794;-79
2023/03/18 09:19:41;;;;;;;21.50;19.20;;;12.40;99.90;;;;;;4866069;29;20486;-80
2023/03/18 09:22:10;;;;;;;21.63;19.43;;;12.40;99.90;;;;;;4866535;29;20952;-80
2023/03/18 09:24:38;;;;;;;20.97;18.83;;;12.50;99.90;;;;;;4864929;29;20494;-79
2023/03/18 09:27:06;;;;;;;20.03;18.00;;;12.50;99.90;;;;;;4864793;29;20885;-80
2023/03/18 09:29:35;;;;;;;20.70;18.73;;;12.60;99.90;;;;;;4864550;29;20490;-80
2023/03/18 09:32:04;;;;;;;20.20;18.30;;;12.60;99.90;;;;;;4864609;29;20451;-80
2023/03/18 09:34:33;;;;;;;20.83;18.83;;;12.70;99.90;;;;;;4864334;29;20462;-79
2023/03/18 09:37:02;;;;;;;21.60;19.40;;;12.70;99.90;;;;;;4864222;29;20818;-79
2023/03/18 09:39:30;;;;;;;21.87;19.57;;;12.80;99.90;;;;;;4864531;29;20466;-79
2023/03/18 09:42:11;;;;;;;21.27;19.07;;;12.80;99.90;;;;;;4864451;29;20455;-79
2023/03/18 09:44:39;;;;;;;23.33;20.90;;;12.90;99.90;;;;;;4864483;29;20466;-80
2023/03/18 09:47:26;;;;;;;23.10;20.77;;;13.00;99.90;;;;;;4864837;29;20470;-79
2023/03/18 09:50:14;;;;;;;22.97;20.67;;;13.10;99.90;;;;;;4865081;29;20573;-80
2023/03/18 09:52:47;;;;;;;22.40;20.17;;;13.10;99.90;;;;;;4864760;29;20921;-78
2023/03/18 09:55:23;;;;;;;24.23;21.87;;;13.20;99.90;;;;;;4862860;29;20459;-79
2023/03/18 09:57:55;;;;;;;23.90;20.03;;;13.30;99.90;;;;;;4863203;29;20495;-80
2023/03/18 10:00:28;;;;;;;23.17;21.07;;;13.40;99.90;;;;;;4863928;29;20495;-81
2023/03/18 10:03:02;;;;;;;23.93;21.43;;;13.50;99.90;;;;;;4865493;29;20459;-81
2023/03/18 10:05:37;;;;;;;25.53;23.00;;;13.60;99.90;;;;;;4864260;29;20451;-81
2023/03/18 10:08:18;;;;;;;22.40;20.10;;;13.80;99.90;;;;;;4864118;29;20906;-81
2023/03/18 10:10:48;;;;;;;24.30;21.77;;;13.80;99.90;;;;;;4863771;29;20498;-81
2023/03/18 10:13:22;;;;;;;25.03;22.53;;;13.90;99.90;;;;;;4864361;29;20821;-81
2023/03/18 10:15:55;;;;;;;24.30;21.77;;;14.00;99.90;;;;;;4863139;29;20455;-80
2023/03/18 10:18:27;;;;;;;25.00;22.53;;;14.10;99.90;;;;;;4864242;29;20431;-80
2023/03/18 10:21:10;;;;;;;25.30;22.73;;;14.10;99.90;;;;;;4864590;29;20474;-80
2023/03/18 10:23:49;;;;;;;25.27;22.87;;;14.20;99.90;;;;;;4867782;29;20463;-80
2023/03/18 10:26:23;;;;;;;25.23;22.50;;;14.20;99.90;;;;;;4865347;29;20436;-80
2023/03/18 10:29:19;;;;;;;25.20;22.70;;;14.30;99.90;;;;;;4864224;29;20553;-80
2023/03/18 10:32:05;;;;;;;26.50;23.80;;;14.30;99.90;;;;;;4864278;29;20475;-80
2023/03/18 10:34:40;;;;;;;26.00;23.43;;;14.40;99.90;;;;;;4863076;29;20519;-77
2023/03/18 10:37:18;;;;;;;26.03;23.43;;;14.40;99.90;;;;;;4861077;29;20952;-77
2023/03/18 10:39:49;;;;;;;27.37;24.57;;;14.50;99.90;;;;;;4860780;29;20495;-78
2023/03/18 10:42:25;;;;;;;28.27;25.57;;;14.50;99.90;;;;;;4860939;29;20554;-77
2023/03/18 10:45:02;;;;;;;26.87;24.23;;;14.60;99.90;;;;;;4861001;29;20454;-77
2023/03/18 10:47:35;;;;;;;28.87;26.03;;;14.60;99.90;;;;;;4862242;29;20434;-77
2023/03/18 10:50:13;;;;;;;27.63;24.93;;;14.70;99.90;;;;;;4860828;29;20547;-78
2023/03/18 10:52:48;;;;;;;29.97;26.90;;;14.70;99.90;;;;;;4860672;29;20905;-77
2023/03/18 10:55:22;;;;;;;28.93;26.33;;;14.80;99.90;;;;;;4861592;29;20454;-77
2023/03/18 10:57:50;;;;;;;30.03;27.13;;;14.80;99.90;;;;;;4865802;29;20438;-77
2023/03/18 11:00:28;;;;;;;28.80;25.77;;;14.80;99.90;;;;;;4863730;29;20471;-77
2023/03/18 11:03:03;;;;;;;28.53;25.93;;;14.80;99.90;;;;;;4862234;29;20479;-77
2023/03/18 11:05:35;;;;;;;31.37;28.20;;;14.90;99.90;;;;;;4860531;29;20511;-77
2023/03/18 11:08:06;;;;;;;30.37;27.47;;;14.80;99.90;;;;;;4862811;29;20474;-79
2023/03/18 11:10:38;;;;;;;29.67;26.97;;;14.80;99.90;;;;;;4865175;29;20479;-79
2023/03/18 11:13:06;;;;;;;29.30;26.50;;;14.90;99.90;;;;;;4865572;29;20401;-80
2023/03/18 11:15:38;;;;;;;29.83;26.93;;;14.90;99.90;;;;;;4863499;29;20511;-80
2023/03/18 11:18:13;;;;;;;30.83;27.93;;;14.90;99.90;;;;;;4863446;29;20520;-80
2023/03/18 11:20:44;;;;;;;28.50;26.00;;;14.90;99.90;;;;;;4862692;29;20977;-81
2023/03/18 11:23:16;;;;;;;28.23;25.50;;;15.00;99.90;;;;;;4863812;29;20455;-82
2023/03/18 11:25:55;;;;;;;27.17;24.47;;;15.00;99.90;;;;;;4864002;29;20455;-81
2023/03/18 11:28:28;;;;;;;28.33;25.80;;;15.00;99.90;;;;;;4863904;29;20468;-81
2023/03/18 11:30:59;;;;;;;25.43;23.00;;;15.10;99.90;;;;;;4862785;29;20494;-81
2023/03/18 11:33:31;;;;;;;27.60;24.63;;;15.20;99.90;;;;;;4864190;29;20486;-80
2023/03/18 11:36:05;;;;;;;27.77;25.20;;;15.20;99.90;;;;;;4863712;29;20559;-81
2023/03/18 11:38:35;;;;;;;28.93;26.13;;;15.40;99.90;;;;;;4863219;29;20457;-81
2023/03/18 11:41:17;;;;;;;30.20;27.30;;;15.40;99.90;;;;;;4866632;29;20474;-81
2023/03/18 11:43:58;;;;;;;28.10;25.10;;;15.60;99.90;;;;;;4864535;29;20824;-81
2023/03/18 11:46:29;;;;;;;26.97;24.17;;;15.60;99.90;;;;;;4863283;29;20459;-82
2023/03/18 11:48:59;;;;;;;28.27;25.67;;;15.60;99.90;;;;;;4863250;29;20447;-81
2023/03/18 11:51:39;;;;;;;27.33;24.83;;;15.70;99.90;;;;;;4863003;29;20491;-77
2023/03/18 11:54:50;;;;;;;26.80;24.00;;;15.70;99.90;;;;;;4864043;29;20480;-82
2023/03/18 11:57:26;;;;;;;25.37;22.97;;;15.80;99.90;;;;;;4858349;29;20436;-79
2023/03/18 12:00:12;;;;;;;23.70;21.17;;;15.90;99.90;;;;;;4863373;29;20445;-78
2023/03/18 12:02:55;;;;;;;22.73;20.63;;;15.90;99.90;;;;;;4862547;29;20459;-78
2023/03/18 12:05:48;;;;;;;17.90;16.20;;;16.00;99.90;;;;;;4864007;29;20431;-80
2023/03/18 12:08:28;;;;;;;20.30;18.40;;;16.00;99.90;;;;;;4864881;29;20447;-80
2023/03/18 12:11:06;;;;;;;20.00;18.20;;;16.10;99.90;;;;;;4860645;29;20533;-78
2023/03/18 12:13:45;;;;;;;21.53;19.07;;;16.10;99.90;;;;;;4859801;29;20458;-78
2023/03/18 12:16:24;;;;;;;21.63;19.60;;;16.10;99.90;;;;;;4860953;29;20435;-78
2023/03/18 12:19:10;;;;;;;21.00;18.93;;;16.20;99.90;;;;;;4859815;29;20443;-78
2023/03/18 12:22:00;;;;;;;19.57;17.73;;;16.20;99.90;;;;;;4860745;29;20506;-78
2023/03/18 12:24:46;;;;;;;21.03;18.93;;;16.20;99.90;;;;;;4860659;29;20482;-78
2023/03/18 12:27:23;;;;;;;21.70;19.50;;;16.30;99.90;;;;;;4859793;29;20437;-76
2023/03/18 12:30:08;;;;;;;18.40;16.80;;;16.40;99.90;;;;;;4859492;29;20907;-76
2023/03/18 12:32:42;;;;;;;19.97;18.07;;;16.50;99.90;;;;;;4859772;29;20454;-76
2023/03/18 12:35:40;;;;;;;18.67;16.93;;;16.50;99.90;;;;;;4859824;29;20426;-78
2023/03/18 12:38:37;;;;;;;20.17;18.37;;;16.60;99.90;;;;;;4857638;29;20491;-78
2023/03/18 12:41:16;;;;;;;19.80;17.70;;;16.60;99.90;;;;;;4859810;29;20479;-77
2023/03/18 12:43:55;;;;;;;19.50;17.70;;;16.50;99.90;;;;;;4864653;29;20470;-77
2023/03/18 12:46:30;;;;;;;18.07;16.30;;;16.60;99.90;;;;;;4864952;29;20454;-78
2023/03/18 12:49:04;;;;;;;17.40;15.70;;;16.60;99.90;;;;;;4864830;29;20450;-80
2023/03/18 12:51:41;;;;;;;17.97;16.20;;;16.70;99.90;;;;;;4865594;29;20827;-80
2023/03/18 12:54:16;;;;;;;15.67;14.20;;;16.80;99.90;;;;;;4865590;29;20949;-80
2023/03/18 12:56:49;;;;;;;15.30;13.67;;;16.90;99.90;;;;;;4866759;29;20805;-80
2023/03/18 12:59:24;;;;;;;14.07;12.67;;;17.00;99.90;;;;;;4865667;29;20501;-80